createdAt,value
2023-05-13T00:00:29.896Z,21.21
2023-05-13T00:03:34.395Z,21.48
2023-05-13T00:06:41.671Z,21.83
2023-05-13T00:09:45.876Z,21.64
2023-05-13T00:12:50.006Z,21.30
2023-05-13T00:15:54.450Z,21.18
2023-05-13T00:18:58.861Z,20.83
2023-05-13T00:22:03.074Z,20.43
2023-05-13T00:25:18.049Z,20.37
2023-05-13T00:28:24.964Z,20.85
2023-05-13T00:31:33.912Z,20.88
2023-05-13T00:34:42.545Z,20.92
2023-05-13T00:37:47.516Z,20.74
2023-05-13T00:40:53.607Z,21.17
2023-05-13T00:43:58.337Z,21.08
2023-05-13T00:47:02.994Z,21.05
2023-05-13T00:50:09.047Z,20.75
2023-05-13T00:53:19.083Z,21.28
2023-05-13T00:56:23.526Z,21.58
2023-05-13T00:59:31.729Z,21.68
2023-05-13T01:04:28.822Z,21.46
2023-05-13T01:23:37.705Z,20.82
2023-05-13T01:36:29.084Z,19.80
2023-05-13T01:39:15.173Z,20.00
2023-05-13T01:55:21.990Z,20.46
2023-05-13T01:58:27.864Z,21.24
2023-05-13T02:01:54.151Z,21.53
2023-05-13T02:06:00.639Z,21.88
2023-05-13T02:09:13.826Z,21.94
2023-05-13T02:12:20.527Z,21.58
2023-05-13T02:15:28.346Z,21.80
2023-05-13T02:18:41.612Z,22.26
2023-05-13T02:21:45.648Z,22.13
2023-05-13T02:24:49.456Z,22.24
2023-05-13T02:27:53.764Z,22.29
2023-05-13T02:30:57.910Z,22.23
2023-05-13T02:34:04.769Z,22.34
2023-05-13T02:37:08.781Z,22.46
2023-05-13T02:40:20.222Z,22.74
2023-05-13T02:43:28.481Z,22.82
2023-05-13T02:46:38.905Z,22.66
2023-05-13T02:49:43.125Z,22.54
2023-05-13T02:52:47.500Z,22.39
2023-05-13T02:55:51.978Z,22.55
2023-05-13T02:59:00.545Z,22.58
2023-05-13T03:02:07.721Z,22.50
2023-05-13T03:05:12.061Z,22.87
2023-05-13T03:21:10.712Z,22.61
2023-05-13T03:24:15.179Z,22.97
2023-05-13T03:27:29.879Z,23.14
2023-05-13T03:30:36.236Z,23.19
2023-05-13T03:33:45.072Z,23.25
2023-05-13T03:37:12.894Z,23.20
2023-05-13T03:44:36.164Z,23.54
2023-05-13T03:47:44.966Z,23.23
2023-05-13T04:20:19.442Z,23.12
2023-05-13T04:23:23.838Z,23.36
2023-05-13T04:26:58.124Z,23.19
2023-05-13T04:30:59.296Z,23.12
2023-05-13T04:34:36.092Z,23.32
2023-05-13T04:37:43.241Z,23.21
2023-05-13T04:41:00.553Z,23.12
2023-05-13T04:44:25.552Z,23.16
2023-05-13T04:47:40.213Z,23.52
2023-05-13T04:51:21.157Z,23.51
2023-05-13T04:54:25.641Z,23.64
2023-05-13T04:58:05.819Z,23.72
2023-05-13T05:01:35.201Z,23.09
2023-05-13T05:04:35.527Z,23.57
2023-05-13T05:15:40.922Z,23.61
2023-05-13T05:22:33.440Z,23.93
2023-05-13T05:25:40.330Z,23.83
2023-05-13T05:29:12.145Z,24.06
2023-05-13T05:32:30.409Z,23.72
2023-05-13T05:45:09.352Z,23.28
2023-05-13T06:23:15.646Z,23.81
2023-05-13T06:26:22.853Z,23.89
2023-05-13T06:29:32.751Z,23.96
2023-05-13T06:32:42.731Z,23.90
2023-05-13T06:35:57.056Z,23.99
2023-05-13T06:39:02.366Z,23.97
2023-05-13T06:42:14.523Z,23.70
2023-05-13T06:45:30.104Z,23.79
2023-05-13T06:48:34.229Z,23.37
2023-05-13T06:51:40.920Z,23.64
2023-05-13T06:54:44.602Z,23.71
2023-05-13T06:57:51.300Z,23.55
2023-05-13T07:00:55.204Z,23.47
2023-05-13T07:03:59.110Z,23.17
2023-05-13T07:07:05.666Z,23.30
2023-05-13T07:10:09.902Z,23.50
2023-05-13T07:13:18.202Z,23.29
2023-05-13T07:16:24.982Z,23.09
2023-05-13T07:19:45.945Z,23.03
2023-05-13T07:27:02.289Z,22.72
2023-05-13T07:30:10.837Z,22.51
2023-05-13T07:33:15.052Z,22.50
2023-05-13T07:36:18.968Z,22.52
2023-05-13T07:39:26.325Z,22.54
2023-05-13T07:42:30.898Z,22.75
2023-05-13T07:45:35.196Z,22.74
2023-05-13T07:48:38.933Z,22.18
2023-05-13T07:51:42.877Z,22.39
2023-05-13T07:54:48.585Z,22.19
2023-05-13T07:58:02.169Z,22.03
2023-05-13T08:01:06.301Z,22.00
2023-05-13T08:04:10.311Z,21.89
2023-05-13T08:07:17.130Z,21.81
2023-05-13T08:10:20.846Z,21.88
2023-05-13T08:13:25.122Z,21.91
2023-05-13T08:16:28.929Z,21.94
2023-05-13T08:19:33.098Z,21.94
2023-05-13T08:22:37.186Z,22.01
2023-05-13T08:25:41.645Z,22.15
2023-05-13T08:28:45.541Z,22.06
2023-05-13T08:31:49.634Z,22.25
2023-05-13T08:34:56.853Z,22.33
2023-05-13T08:38:04.711Z,22.17
2023-05-13T08:41:08.503Z,22.04
2023-05-13T08:44:16.093Z,21.86
2023-05-13T08:47:41.283Z,21.90
2023-05-13T08:50:46.575Z,21.81
2023-05-13T08:53:52.971Z,21.71
2023-05-13T08:56:56.983Z,21.64
2023-05-13T09:00:00.796Z,21.72
2023-05-13T09:03:10.623Z,21.54
2023-05-13T09:06:14.558Z,21.53
2023-05-13T09:09:19.499Z,21.62
2023-05-13T09:12:47.506Z,21.46
2023-05-13T09:15:52.806Z,21.36
2023-05-13T09:19:06.731Z,21.32
2023-05-13T09:22:19.403Z,21.19
2023-05-13T09:25:27.998Z,20.88
2023-05-13T09:28:34.777Z,20.95
2023-05-13T09:35:22.948Z,20.42
2023-05-13T10:13:39.653Z,19.06
2023-05-13T10:16:47.667Z,18.99
2023-05-13T10:19:55.724Z,19.15
2023-05-13T10:23:16.470Z,18.86
2023-05-13T10:27:30.494Z,18.99
2023-05-13T10:30:46.269Z,18.42
2023-05-13T10:33:58.780Z,18.66
2023-05-13T10:37:24.137Z,18.73
2023-05-13T10:41:07.019Z,18.62
2023-05-13T10:44:12.122Z,18.71
2023-05-13T10:47:21.583Z,18.85
2023-05-13T10:50:28.708Z,18.69
2023-05-13T10:53:37.429Z,18.61
2023-05-13T10:56:50.297Z,18.24
2023-05-13T11:00:22.649Z,18.30
2023-05-13T11:03:32.245Z,18.06
2023-05-13T11:06:42.013Z,17.96
2023-05-13T11:09:52.104Z,18.13
2023-05-13T11:13:19.361Z,18.19
2023-05-13T11:16:29.792Z,18.19
2023-05-13T11:19:35.918Z,18.02
2023-05-13T11:22:43.036Z,18.00
2023-05-13T11:25:50.238Z,18.12
2023-05-13T11:29:08.706Z,18.07
2023-05-13T11:32:12.726Z,17.82
2023-05-13T11:35:42.653Z,17.84
2023-05-13T11:38:47.023Z,17.69
2023-05-13T11:41:52.643Z,17.86
2023-05-13T11:45:00.278Z,17.76
2023-05-13T11:48:21.151Z,17.59
2023-05-13T11:51:26.488Z,17.59
2023-05-13T11:54:30.662Z,17.65
2023-05-13T11:57:41.652Z,17.85
2023-05-13T12:00:46.681Z,17.87
2023-05-13T12:03:51.392Z,17.93
2023-05-13T12:07:05.306Z,18.20
2023-05-13T12:10:12.521Z,18.30
2023-05-13T12:13:24.961Z,18.19
2023-05-13T12:16:32.492Z,18.27
2023-05-13T12:19:38.236Z,18.50
2023-05-13T12:22:47.531Z,18.42
2023-05-13T12:26:01.458Z,18.38
2023-05-13T12:29:09.673Z,18.28
2023-05-13T12:32:19.456Z,18.45
2023-05-13T12:35:27.714Z,18.42
2023-05-13T12:38:32.410Z,18.28
2023-05-13T12:41:42.959Z,18.40
2023-05-13T12:45:05.667Z,18.34
2023-05-13T12:48:10.129Z,18.36
2023-05-13T12:51:19.847Z,18.43
2023-05-13T12:54:23.977Z,18.36
2023-05-13T12:57:31.117Z,18.39
2023-05-13T13:00:37.394Z,18.50
2023-05-13T13:03:42.072Z,18.49
2023-05-13T13:06:46.496Z,18.50
2023-05-13T13:09:50.414Z,18.38
2023-05-13T13:12:54.636Z,18.28
2023-05-13T13:16:06.383Z,18.28
2023-05-13T13:19:11.200Z,18.39
2023-05-13T13:22:16.103Z,18.39
2023-05-13T13:25:20.648Z,18.44
2023-05-13T13:28:27.638Z,18.31
2023-05-13T13:31:33.772Z,18.15
2023-05-13T13:34:38.983Z,18.15
2023-05-13T13:37:44.783Z,18.25
2023-05-13T13:40:49.446Z,18.14
2023-05-13T13:43:55.701Z,18.21
2023-05-13T13:47:02.193Z,18.29
2023-05-13T13:50:07.179Z,18.13
2023-05-13T13:53:13.863Z,17.51
2023-05-13T13:56:24.135Z,17.93
2023-05-13T13:59:31.075Z,17.87
2023-05-13T14:02:38.239Z,17.86
2023-05-13T14:05:42.637Z,17.87
2023-05-13T14:08:46.772Z,17.62
2023-05-13T14:11:51.083Z,17.61
2023-05-13T14:14:55.230Z,17.74
2023-05-13T14:18:02.213Z,17.88
2023-05-13T14:21:07.193Z,17.74
2023-05-13T14:24:12.781Z,17.64
2023-05-13T14:27:19.102Z,17.89
2023-05-13T14:30:24.158Z,17.63
2023-05-13T14:33:28.280Z,17.76
2023-05-13T14:36:34.797Z,17.85
2023-05-13T14:39:41.772Z,17.73
2023-05-13T14:42:50.414Z,17.86
2023-05-13T14:45:54.349Z,17.84
2023-05-13T14:49:01.059Z,17.46
2023-05-13T14:52:14.668Z,17.30
2023-05-13T14:58:55.560Z,17.73
2023-05-13T15:01:59.812Z,17.57
2023-05-13T15:05:06.742Z,17.45
2023-05-13T15:08:10.864Z,17.31
2023-05-13T15:11:16.145Z,17.31
2023-05-13T15:14:21.941Z,17.29
2023-05-13T15:17:26.027Z,17.14
2023-05-13T15:20:30.652Z,17.14
2023-05-13T15:23:34.830Z,16.93
2023-05-13T15:26:40.753Z,16.81
2023-05-13T15:29:44.780Z,16.83
2023-05-13T15:32:49.258Z,16.65
2023-05-13T15:35:53.585Z,16.59
2023-05-13T15:38:58.035Z,16.49
2023-05-13T15:42:04.811Z,16.34
2023-05-13T15:45:11.221Z,16.30
2023-05-13T15:48:15.436Z,16.19
2023-05-13T15:51:19.508Z,16.21
2023-05-13T15:54:23.300Z,16.10
2023-05-13T15:57:27.488Z,16.02
2023-05-13T16:00:47.931Z,15.43
2023-05-13T16:11:47.215Z,15.52
2023-05-13T16:14:51.801Z,15.48
2023-05-13T16:18:09.101Z,15.53
2023-05-13T16:21:14.173Z,15.37
2023-05-13T16:24:28.192Z,15.53
2023-05-13T16:27:50.872Z,15.20
2023-05-13T16:30:58.638Z,15.21
2023-05-13T16:34:12.562Z,14.95
2023-05-13T16:37:23.026Z,14.97
2023-05-13T16:40:45.549Z,14.83
2023-05-13T16:43:49.912Z,14.62
2023-05-13T16:46:57.036Z,14.96
2023-05-13T16:53:57.028Z,14.25
2023-05-13T16:57:16.060Z,14.44
2023-05-13T17:00:28.166Z,14.57
2023-05-13T17:03:44.981Z,14.38
2023-05-13T17:07:03.203Z,14.53
2023-05-13T17:10:31.159Z,13.74
2023-05-13T17:13:40.943Z,13.67
2023-05-13T17:16:52.570Z,13.70
2023-05-13T17:20:02.658Z,13.69
2023-05-13T17:23:07.681Z,14.04
2023-05-13T17:26:28.727Z,13.88
2023-05-13T17:29:56.136Z,13.76
2023-05-13T17:33:23.224Z,13.86
2023-05-13T17:36:34.883Z,13.64
2023-05-13T17:39:46.396Z,13.21
2023-05-13T17:42:56.833Z,13.20
2023-05-13T17:46:22.911Z,13.53
2023-05-13T17:49:47.076Z,13.23
2023-05-13T17:52:57.102Z,13.24
2023-05-13T17:56:03.448Z,13.01
2023-05-13T17:59:15.151Z,13.39
2023-05-13T18:02:21.363Z,13.04
2023-05-13T18:05:32.041Z,12.80
2023-05-13T18:08:42.617Z,12.94
2023-05-13T18:11:47.216Z,12.65
2023-05-13T18:14:55.857Z,12.66
2023-05-13T18:18:22.184Z,12.50
2023-05-13T18:21:45.679Z,12.71
2023-05-13T18:25:23.907Z,12.37
2023-05-13T18:29:01.916Z,12.49
2023-05-13T18:32:10.548Z,13.29
2023-05-13T18:35:16.382Z,13.18
2023-05-13T18:38:20.475Z,13.28
2023-05-13T18:41:24.523Z,13.28
2023-05-13T18:44:29.621Z,13.09
2023-05-13T18:47:35.716Z,12.97
2023-05-13T18:50:39.755Z,13.16
2023-05-13T18:53:43.985Z,12.94
2023-05-13T18:56:49.191Z,13.22
2023-05-13T18:59:53.460Z,13.72
2023-05-13T19:02:57.668Z,14.16
2023-05-13T19:06:01.807Z,14.23
2023-05-13T19:09:07.878Z,14.36
2023-05-13T19:12:11.971Z,14.59
2023-05-13T19:15:22.250Z,14.64
2023-05-13T19:18:26.625Z,14.70
2023-05-13T19:21:30.750Z,14.73
2023-05-13T19:24:37.232Z,15.09
2023-05-13T19:27:45.268Z,14.69
2023-05-13T19:31:01.055Z,14.77
2023-05-13T20:03:24.967Z,13.58
2023-05-13T20:07:06.551Z,14.28
2023-05-13T20:10:20.912Z,14.29
2023-05-13T20:18:57.742Z,13.22
2023-05-13T20:23:20.466Z,13.32
2023-05-13T20:27:18.626Z,13.31
2023-05-13T20:30:34.827Z,13.72
2023-05-13T20:34:00.321Z,14.00
2023-05-13T20:37:11.942Z,14.18
2023-05-13T20:40:33.419Z,13.89
2023-05-13T20:44:40.496Z,13.88
2023-05-13T21:04:23.045Z,14.09
2023-05-13T21:07:35.538Z,14.09
2023-05-13T21:11:03.844Z,14.34
2023-05-13T21:15:15.382Z,13.85
2023-05-13T21:20:01.363Z,14.58
2023-05-13T21:23:16.471Z,14.45
2023-05-13T21:26:23.010Z,14.63
2023-05-13T21:29:40.892Z,14.54
2023-05-13T21:32:55.394Z,14.64
2023-05-13T21:35:59.463Z,14.86
2023-05-13T21:39:06.133Z,14.55
2023-05-13T21:42:10.758Z,14.91
2023-05-13T21:45:16.081Z,15.41
2023-05-13T21:48:22.755Z,15.76
2023-05-13T21:51:58.999Z,15.34
2023-05-13T21:55:39.992Z,15.43
2023-05-13T22:06:55.513Z,15.83
2023-05-13T22:10:07.068Z,16.37
2023-05-13T22:13:41.072Z,16.18
2023-05-13T22:22:19.920Z,16.87
2023-05-13T22:25:41.014Z,16.92
2023-05-13T22:32:44.821Z,17.29
2023-05-13T22:36:02.606Z,17.07
2023-05-13T22:39:15.139Z,17.83
2023-05-13T22:42:19.862Z,18.02
2023-05-13T22:45:23.939Z,18.08
2023-05-13T22:48:29.806Z,18.21
2023-05-13T22:51:34.684Z,18.31
2023-05-13T22:54:38.755Z,18.78
2023-05-13T22:57:43.405Z,18.82
2023-05-13T23:00:47.281Z,18.91
2023-05-13T23:03:53.496Z,19.01
2023-05-13T23:06:57.852Z,18.75
2023-05-13T23:10:01.964Z,18.40
2023-05-13T23:13:06.971Z,18.17
2023-05-13T23:16:10.918Z,18.15
2023-05-13T23:19:14.965Z,18.29
2023-05-13T23:22:19.125Z,18.93
2023-05-13T23:25:25.663Z,19.65
2023-05-13T23:28:29.849Z,20.37
2023-05-13T23:31:33.880Z,20.64
2023-05-13T23:34:37.940Z,20.72
2023-05-13T23:37:41.909Z,21.00
2023-05-13T23:41:00.152Z,20.84
2023-05-13T23:44:09.727Z,20.81
2023-05-13T23:47:16.337Z,20.75
2023-05-13T23:50:20.705Z,21.10
2023-05-13T23:53:24.741Z,21.17
2023-05-13T23:56:28.783Z,21.37
2023-05-13T23:59:32.839Z,21.64
